sensor_id;sensor_type;location;lat;lon;timestamp;temperature;humidity
30648;DHT22;17683;53.360;9.736;2022-09-30T00:01:44;8.40;99.90
30648;DHT22;17683;53.360;9.736;2022-09-30T00:04:24;8.50;99.90
30648;DHT22;17683;53.360;9.736;2022-09-30T00:06:51;8.50;99.90
30648;DHT22;17683;53.360;9.736;2022-09-30T00:09:17;8.40;99.90
30648;DHT22;17683;53.360;9.736;2022-09-30T00:11:43;8.40;99.90
30648;DHT22;17683;53.360;9.736;2022-09-30T00:14:15;8.40;99.90
30648;DHT22;17683;53.360;9.736;2022-09-30T00:16:41;8.30;99.90
30648;DHT22;17683;53.360;9.736;2022-09-30T00:19:08;8.30;99.90
30648;DHT22;17683;53.360;9.736;2022-09-30T00:21:34;8.20;99.90
30648;DHT22;17683;53.360;9.736;2022-09-30T00:24:00;8.20;99.90
30648;DHT22;17683;53.360;9.736;2022-09-30T00:26:26;8.20;99.90
30648;DHT22;17683;53.360;9.736;2022-09-30T00:28:54;8.20;99.90
30648;DHT22;17683;53.360;9.736;2022-09-30T00:31:21;8.20;99.90
30648;DHT22;17683;53.360;9.736;2022-09-30T00:33:47;8.10;99.90
30648;DHT22;17683;53.360;9.736;2022-09-30T00:36:45;8.10;99.90
30648;DHT22;17683;53.360;9.736;2022-09-30T00:39:15;8.10;99.90
30648;DHT22;17683;53.360;9.736;2022-09-30T00:41:41;8.00;99.90
30648;DHT22;17683;53.360;9.736;2022-09-30T00:52:49;8.00;99.90
30648;DHT22;17683;53.360;9.736;2022-09-30T00:55:39;7.90;99.90
30648;DHT22;17683;53.360;9.736;2022-09-30T00:58:08;7.90;99.90
30648;DHT22;17683;53.360;9.736;2022-09-30T01:00:35;7.90;99.90
30648;DHT22;17683;53.360;9.736;2022-09-30T01:03:01;7.90;99.90
30648;DHT22;17683;53.360;9.736;2022-09-30T01:05:30;7.90;99.90
30648;DHT22;17683;53.360;9.736;2022-09-30T01:07:57;7.80;99.90
30648;DHT22;17683;53.360;9.736;2022-09-30T01:10:24;7.80;99.90
30648;DHT22;17683;53.360;9.736;2022-09-30T01:12:50;7.80;99.90
30648;DHT22;17683;53.360;9.736;2022-09-30T01:15:16;7.80;99.90
30648;DHT22;17683;53.360;9.736;2022-09-30T01:17:54;7.80;99.90
30648;DHT22;17683;53.360;9.736;2022-09-30T01:23:37;7.80;99.90
30648;DHT22;17683;53.360;9.736;2022-09-30T01:29:07;7.70;99.90
30648;DHT22;17683;53.360;9.736;2022-09-30T01:37:43;7.80;99.90
30648;DHT22;17683;53.360;9.736;2022-09-30T01:40:23;7.70;99.90
30648;DHT22;17683;53.360;9.736;2022-09-30T01:43:05;7.80;99.90
30648;DHT22;17683;53.360;9.736;2022-09-30T01:48:16;7.80;99.90
30648;DHT22;17683;53.360;9.736;2022-09-30T01:51:05;7.80;99.90
30648;DHT22;17683;53.360;9.736;2022-09-30T01:56:20;7.90;99.90
30648;DHT22;17683;53.360;9.736;2022-09-30T02:01:23;7.80;99.90
30648;DHT22;17683;53.360;9.736;2022-09-30T02:03:57;7.90;99.90
30648;DHT22;17683;53.360;9.736;2022-09-30T02:06:34;7.90;99.90
30648;DHT22;17683;53.360;9.736;2022-09-30T02:09:10;8.00;99.90
30648;DHT22;17683;53.360;9.736;2022-09-30T02:11:38;7.90;99.90
30648;DHT22;17683;53.360;9.736;2022-09-30T02:14:31;8.00;99.90
30648;DHT22;17683;53.360;9.736;2022-09-30T02:17:20;8.00;99.90
30648;DHT22;17683;53.360;9.736;2022-09-30T02:19:55;8.00;99.90
30648;DHT22;17683;53.360;9.736;2022-09-30T02:22:33;8.10;99.90
30648;DHT22;17683;53.360;9.736;2022-09-30T02:25:06;8.10;99.90
30648;DHT22;17683;53.360;9.736;2022-09-30T02:27:42;8.10;99.90
30648;DHT22;17683;53.360;9.736;2022-09-30T02:30:11;8.10;99.90
30648;DHT22;17683;53.360;9.736;2022-09-30T02:32:48;8.10;99.90
30648;DHT22;17683;53.360;9.736;2022-09-30T02:37:51;8.10;99.90
30648;DHT22;17683;53.360;9.736;2022-09-30T02:40:26;8.20;99.90
30648;DHT22;17683;53.360;9.736;2022-09-30T02:42:53;8.20;99.90
30648;DHT22;17683;53.360;9.736;2022-09-30T02:45:21;8.20;99.90
30648;DHT22;17683;53.360;9.736;2022-09-30T02:48:02;8.20;99.90
30648;DHT22;17683;53.360;9.736;2022-09-30T02:50:49;8.30;99.90
30648;DHT22;17683;53.360;9.736;2022-09-30T02:53:30;8.30;99.90
30648;DHT22;17683;53.360;9.736;2022-09-30T02:56:26;8.30;99.90
30648;DHT22;17683;53.360;9.736;2022-09-30T02:58:56;8.30;99.90
30648;DHT22;17683;53.360;9.736;2022-09-30T03:01:23;8.30;99.90
30648;DHT22;17683;53.360;9.736;2022-09-30T03:03:55;8.40;99.90
30648;DHT22;17683;53.360;9.736;2022-09-30T03:06:22;8.30;99.90
30648;DHT22;17683;53.360;9.736;2022-09-30T03:08:48;8.30;99.90
30648;DHT22;17683;53.360;9.736;2022-09-30T03:11:23;8.30;99.90
30648;DHT22;17683;53.360;9.736;2022-09-30T03:22:05;8.30;99.90
30648;DHT22;17683;53.360;9.736;2022-09-30T03:29:56;8.20;99.90
30648;DHT22;17683;53.360;9.736;2022-09-30T03:35:31;8.30;99.90
30648;DHT22;17683;53.360;9.736;2022-09-30T03:41:11;8.30;99.90
30648;DHT22;17683;53.360;9.736;2022-09-30T03:43:53;8.30;99.90
30648;DHT22;17683;53.360;9.736;2022-09-30T03:46:29;8.30;99.90
30648;DHT22;17683;53.360;9.736;2022-09-30T03:48:59;8.30;99.90
30648;DHT22;17683;53.360;9.736;2022-09-30T03:51:26;8.40;99.90
30648;DHT22;17683;53.360;9.736;2022-09-30T03:53:55;8.40;99.90
30648;DHT22;17683;53.360;9.736;2022-09-30T03:56:26;8.30;99.90
30648;DHT22;17683;53.360;9.736;2022-09-30T03:58:53;8.30;99.90
30648;DHT22;17683;53.360;9.736;2022-09-30T04:01:19;8.30;99.90
30648;DHT22;17683;53.360;9.736;2022-09-30T04:03:49;8.30;99.90
30648;DHT22;17683;53.360;9.736;2022-09-30T04:06:17;8.30;99.90
30648;DHT22;17683;53.360;9.736;2022-09-30T04:08:43;8.30;99.90
30648;DHT22;17683;53.360;9.736;2022-09-30T04:11:10;8.20;99.90
30648;DHT22;17683;53.360;9.736;2022-09-30T04:13:36;8.20;99.90
30648;DHT22;17683;53.360;9.736;2022-09-30T04:16:02;8.20;99.90
30648;DHT22;17683;53.360;9.736;2022-09-30T04:18:28;8.20;99.90
30648;DHT22;17683;53.360;9.736;2022-09-30T04:20:56;8.20;99.90
30648;DHT22;17683;53.360;9.736;2022-09-30T04:23:21;8.20;99.90
30648;DHT22;17683;53.360;9.736;2022-09-30T04:25:52;8.20;99.90
30648;DHT22;17683;53.360;9.736;2022-09-30T04:28:18;8.20;99.90
30648;DHT22;17683;53.360;9.736;2022-09-30T04:30:43;8.20;99.90
30648;DHT22;17683;53.360;9.736;2022-09-30T04:33:09;8.10;99.90
30648;DHT22;17683;53.360;9.736;2022-09-30T04:35:37;8.10;99.90
30648;DHT22;17683;53.360;9.736;2022-09-30T04:38:04;8.10;99.90
30648;DHT22;17683;53.360;9.736;2022-09-30T04:40:34;8.10;99.90
30648;DHT22;17683;53.360;9.736;2022-09-30T04:43:00;8.00;99.90
30648;DHT22;17683;53.360;9.736;2022-09-30T04:45:26;8.00;99.90
30648;DHT22;17683;53.360;9.736;2022-09-30T04:47:52;7.90;99.90
30648;DHT22;17683;53.360;9.736;2022-09-30T04:50:18;7.90;99.90
30648;DHT22;17683;53.360;9.736;2022-09-30T04:52:43;7.90;99.90
30648;DHT22;17683;53.360;9.736;2022-09-30T04:55:10;7.80;99.90
30648;DHT22;17683;53.360;9.736;2022-09-30T04:57:36;7.80;99.90
30648;DHT22;17683;53.360;9.736;2022-09-30T05:00:03;7.80;99.90
30648;DHT22;17683;53.360;9.736;2022-09-30T05:02:31;7.70;99.90
30648;DHT22;17683;53.360;9.736;2022-09-30T05:04:56;7.70;99.90
30648;DHT22;17683;53.360;9.736;2022-09-30T05:07:22;7.70;99.90
30648;DHT22;17683;53.360;9.736;2022-09-30T05:09:48;7.60;99.90
30648;DHT22;17683;53.360;9.736;2022-09-30T05:12:14;7.60;99.90
30648;DHT22;17683;53.360;9.736;2022-09-30T05:14:40;7.50;99.90
30648;DHT22;17683;53.360;9.736;2022-09-30T05:17:06;7.50;99.90
30648;DHT22;17683;53.360;9.736;2022-09-30T05:19:32;7.50;99.90
30648;DHT22;17683;53.360;9.736;2022-09-30T05:21:57;7.40;99.90
30648;DHT22;17683;53.360;9.736;2022-09-30T05:24:23;7.40;99.90
30648;DHT22;17683;53.360;9.736;2022-09-30T05:26:49;7.30;99.90
30648;DHT22;17683;53.360;9.736;2022-09-30T05:29:15;7.30;99.90
30648;DHT22;17683;53.360;9.736;2022-09-30T05:31:40;7.30;99.90
30648;DHT22;17683;53.360;9.736;2022-09-30T05:34:07;7.20;99.90
30648;DHT22;17683;53.360;9.736;2022-09-30T05:36:32;7.20;99.90
30648;DHT22;17683;53.360;9.736;2022-09-30T05:38:58;7.20;99.90
30648;DHT22;17683;53.360;9.736;2022-09-30T05:41:24;7.20;99.90
30648;DHT22;17683;53.360;9.736;2022-09-30T05:43:50;7.20;99.90
30648;DHT22;17683;53.360;9.736;2022-09-30T05:46:17;7.10;99.90
30648;DHT22;17683;53.360;9.736;2022-09-30T05:48:43;7.10;99.90
30648;DHT22;17683;53.360;9.736;2022-09-30T05:51:09;7.10;99.90
30648;DHT22;17683;53.360;9.736;2022-09-30T05:53:36;7.10;99.90
30648;DHT22;17683;53.360;9.736;2022-09-30T05:56:07;7.00;99.90
30648;DHT22;17683;53.360;9.736;2022-09-30T05:58:34;7.00;99.90
30648;DHT22;17683;53.360;9.736;2022-09-30T06:01:06;7.00;99.90
30648;DHT22;17683;53.360;9.736;2022-09-30T06:03:33;7.00;99.90
30648;DHT22;17683;53.360;9.736;2022-09-30T06:06:00;7.00;99.90
30648;DHT22;17683;53.360;9.736;2022-09-30T06:08:25;7.00;99.90
30648;DHT22;17683;53.360;9.736;2022-09-30T06:10:51;7.10;99.90
30648;DHT22;17683;53.360;9.736;2022-09-30T06:13:17;7.10;99.90
30648;DHT22;17683;53.360;9.736;2022-09-30T06:15:43;7.10;99.90
30648;DHT22;17683;53.360;9.736;2022-09-30T06:18:09;7.10;99.90
30648;DHT22;17683;53.360;9.736;2022-09-30T06:20:37;7.10;99.90
30648;DHT22;17683;53.360;9.736;2022-09-30T06:23:03;7.10;99.90
30648;DHT22;17683;53.360;9.736;2022-09-30T06:25:30;7.10;99.90
30648;DHT22;17683;53.360;9.736;2022-09-30T06:27:56;7.20;99.90
30648;DHT22;17683;53.360;9.736;2022-09-30T06:30:22;7.20;99.90
30648;DHT22;17683;53.360;9.736;2022-09-30T06:32:48;7.20;99.90
30648;DHT22;17683;53.360;9.736;2022-09-30T06:35:14;7.30;99.90
30648;DHT22;17683;53.360;9.736;2022-09-30T06:37:41;7.30;99.90
30648;DHT22;17683;53.360;9.736;2022-09-30T06:40:07;7.40;99.90
30648;DHT22;17683;53.360;9.736;2022-09-30T06:42:33;7.50;99.90
30648;DHT22;17683;53.360;9.736;2022-09-30T06:44:59;7.50;99.90
30648;DHT22;17683;53.360;9.736;2022-09-30T06:47:25;7.60;99.90
30648;DHT22;17683;53.360;9.736;2022-09-30T06:49:51;7.80;99.90
30648;DHT22;17683;53.360;9.736;2022-09-30T06:52:18;7.90;99.90
30648;DHT22;17683;53.360;9.736;2022-09-30T06:54:44;8.00;99.90
30648;DHT22;17683;53.360;9.736;2022-09-30T06:57:12;8.10;99.90
30648;DHT22;17683;53.360;9.736;2022-09-30T06:59:37;8.20;99.90
30648;DHT22;17683;53.360;9.736;2022-09-30T07:02:03;8.30;99.90
30648;DHT22;17683;53.360;9.736;2022-09-30T07:04:30;8.40;99.90
30648;DHT22;17683;53.360;9.736;2022-09-30T07:06:56;8.50;99.90
30648;DHT22;17683;53.360;9.736;2022-09-30T07:09:22;8.60;99.90
30648;DHT22;17683;53.360;9.736;2022-09-30T07:11:48;8.70;99.90
30648;DHT22;17683;53.360;9.736;2022-09-30T07:14:14;8.70;99.90
30648;DHT22;17683;53.360;9.736;2022-09-30T07:16:40;8.90;99.90
30648;DHT22;17683;53.360;9.736;2022-09-30T07:19:06;8.90;99.90
30648;DHT22;17683;53.360;9.736;2022-09-30T07:21:33;9.00;99.90
30648;DHT22;17683;53.360;9.736;2022-09-30T07:23:59;9.10;99.90
30648;DHT22;17683;53.360;9.736;2022-09-30T07:26:26;9.20;99.90
30648;DHT22;17683;53.360;9.736;2022-09-30T07:28:52;9.30;99.90
30648;DHT22;17683;53.360;9.736;2022-09-30T07:31:20;9.30;99.90
30648;DHT22;17683;53.360;9.736;2022-09-30T07:33:47;9.40;99.90
30648;DHT22;17683;53.360;9.736;2022-09-30T07:36:16;9.50;99.90
30648;DHT22;17683;53.360;9.736;2022-09-30T07:38:44;9.60;99.90
30648;DHT22;17683;53.360;9.736;2022-09-30T07:41:15;9.70;99.90
30648;DHT22;17683;53.360;9.736;2022-09-30T07:43:45;9.70;99.90
30648;DHT22;17683;53.360;9.736;2022-09-30T07:46:17;9.90;99.90
30648;DHT22;17683;53.360;9.736;2022-09-30T07:48:49;9.90;99.90
30648;DHT22;17683;53.360;9.736;2022-09-30T07:51:19;10.00;99.90
30648;DHT22;17683;53.360;9.736;2022-09-30T07:53:50;10.00;99.90
30648;DHT22;17683;53.360;9.736;2022-09-30T07:56:16;10.10;99.90
30648;DHT22;17683;53.360;9.736;2022-09-30T07:58:44;10.20;99.90
30648;DHT22;17683;53.360;9.736;2022-09-30T08:01:10;10.20;99.90
30648;DHT22;17683;53.360;9.736;2022-09-30T08:03:38;10.30;99.90
30648;DHT22;17683;53.360;9.736;2022-09-30T08:06:14;10.40;99.90
30648;DHT22;17683;53.360;9.736;2022-09-30T08:08:40;10.50;99.90
30648;DHT22;17683;53.360;9.736;2022-09-30T08:11:08;10.60;99.90
30648;DHT22;17683;53.360;9.736;2022-09-30T08:13:34;10.60;99.90
30648;DHT22;17683;53.360;9.736;2022-09-30T08:16:00;10.70;99.90
30648;DHT22;17683;53.360;9.736;2022-09-30T08:18:26;10.80;99.90
30648;DHT22;17683;53.360;9.736;2022-09-30T08:20:52;10.90;99.90
30648;DHT22;17683;53.360;9.736;2022-09-30T08:23:18;11.00;99.90
30648;DHT22;17683;53.360;9.736;2022-09-30T08:25:44;11.10;99.90
30648;DHT22;17683;53.360;9.736;2022-09-30T08:28:11;11.20;99.90
30648;DHT22;17683;53.360;9.736;2022-09-30T08:30:37;11.20;99.90
30648;DHT22;17683;53.360;9.736;2022-09-30T08:33:04;11.30;99.90
30648;DHT22;17683;53.360;9.736;2022-09-30T08:35:30;11.50;99.90
30648;DHT22;17683;53.360;9.736;2022-09-30T08:37:56;11.60;99.90
30648;DHT22;17683;53.360;9.736;2022-09-30T08:40:35;11.70;99.90
30648;DHT22;17683;53.360;9.736;2022-09-30T08:43:16;11.70;99.90
30648;DHT22;17683;53.360;9.736;2022-09-30T08:46:06;11.90;99.90
30648;DHT22;17683;53.360;9.736;2022-09-30T08:49:16;11.90;99.90
30648;DHT22;17683;53.360;9.736;2022-09-30T08:51:37;12.10;99.90
30648;DHT22;17683;53.360;9.736;2022-09-30T08:54:06;12.20;99.90
30648;DHT22;17683;53.360;9.736;2022-09-30T08:56:35;12.30;99.90
30648;DHT22;17683;53.360;9.736;2022-09-30T09:02:31;12.60;99.90
30648;DHT22;17683;53.360;9.736;2022-09-30T09:05:01;12.70;99.90
30648;DHT22;17683;53.360;9.736;2022-09-30T09:18:20;13.00;99.90
30648;DHT22;17683;53.360;9.736;2022-09-30T09:20:57;13.00;99.90
30648;DHT22;17683;53.360;9.736;2022-09-30T09:23:25;13.20;99.90
30648;DHT22;17683;53.360;9.736;2022-09-30T09:25:53;13.20;99.90
30648;DHT22;17683;53.360;9.736;2022-09-30T09:31:13;13.30;99.90
30648;DHT22;17683;53.360;9.736;2022-09-30T09:33:41;13.40;99.90
30648;DHT22;17683;53.360;9.736;2022-09-30T09:47:37;13.90;99.90
30648;DHT22;17683;53.360;9.736;2022-09-30T09:50:12;14.00;99.90
30648;DHT22;17683;53.360;9.736;2022-09-30T09:55:31;14.10;99.90
30648;DHT22;17683;53.360;9.736;2022-09-30T09:58:26;14.20;99.90
30648;DHT22;17683;53.360;9.736;2022-09-30T10:00:51;14.20;99.90
30648;DHT22;17683;53.360;9.736;2022-09-30T10:03:19;14.40;99.90
30648;DHT22;17683;53.360;9.736;2022-09-30T10:08:30;14.50;99.90
30648;DHT22;17683;53.360;9.736;2022-09-30T10:11:05;14.60;99.90
30648;DHT22;17683;53.360;9.736;2022-09-30T10:16:03;14.80;99.90
30648;DHT22;17683;53.360;9.736;2022-09-30T10:18:35;14.90;99.90
30648;DHT22;17683;53.360;9.736;2022-09-30T10:23:38;14.90;99.90
30648;DHT22;17683;53.360;9.736;2022-09-30T10:28:54;14.90;99.90
30648;DHT22;17683;53.360;9.736;2022-09-30T10:31:26;15.00;99.90
30648;DHT22;17683;53.360;9.736;2022-09-30T10:34:20;15.10;99.90
30648;DHT22;17683;53.360;9.736;2022-09-30T10:36:49;15.30;99.90
30648;DHT22;17683;53.360;9.736;2022-09-30T10:39:59;15.40;99.90
30648;DHT22;17683;53.360;9.736;2022-09-30T10:42:24;15.40;99.90
30648;DHT22;17683;53.360;9.736;2022-09-30T10:45:03;15.50;99.90
30648;DHT22;17683;53.360;9.736;2022-09-30T10:47:31;15.60;99.90
30648;DHT22;17683;53.360;9.736;2022-09-30T10:50:02;15.70;99.90
30648;DHT22;17683;53.360;9.736;2022-09-30T10:52:36;15.60;99.90
30648;DHT22;17683;53.360;9.736;2022-09-30T10:55:13;15.50;99.90
30648;DHT22;17683;53.360;9.736;2022-09-30T10:57:51;15.40;99.90
30648;DHT22;17683;53.360;9.736;2022-09-30T11:00:20;15.20;99.90
30648;DHT22;17683;53.360;9.736;2022-09-30T11:05:24;15.30;99.90
30648;DHT22;17683;53.360;9.736;2022-09-30T11:13:40;15.50;99.90
30648;DHT22;17683;53.360;9.736;2022-09-30T11:21:55;16.00;99.90
30648;DHT22;17683;53.360;9.736;2022-09-30T11:24:44;16.10;99.90
30648;DHT22;17683;53.360;9.736;2022-09-30T11:27:22;16.20;99.90
30648;DHT22;17683;53.360;9.736;2022-09-30T11:37:40;16.50;99.90
30648;DHT22;17683;53.360;9.736;2022-09-30T11:40:34;16.50;99.90
30648;DHT22;17683;53.360;9.736;2022-09-30T11:43:38;16.40;99.90
30648;DHT22;17683;53.360;9.736;2022-09-30T11:46:11;16.10;99.90
30648;DHT22;17683;53.360;9.736;2022-09-30T12:00:00;16.30;99.90
30648;DHT22;17683;53.360;9.736;2022-09-30T12:02:36;16.40;99.90
30648;DHT22;17683;53.360;9.736;2022-09-30T12:05:17;16.30;99.90
30648;DHT22;17683;53.360;9.736;2022-09-30T12:07:49;16.40;99.90
30648;DHT22;17683;53.360;9.736;2022-09-30T12:10:28;16.60;99.90
30648;DHT22;17683;53.360;9.736;2022-09-30T12:13:19;16.60;99.90
30648;DHT22;17683;53.360;9.736;2022-09-30T12:15:48;16.80;99.90
30648;DHT22;17683;53.360;9.736;2022-09-30T12:18:23;16.80;99.90
30648;DHT22;17683;53.360;9.736;2022-09-30T12:21:15;16.90;99.90
30648;DHT22;17683;53.360;9.736;2022-09-30T12:23:46;16.80;99.90
30648;DHT22;17683;53.360;9.736;2022-09-30T12:26:15;16.80;99.90
30648;DHT22;17683;53.360;9.736;2022-09-30T12:28:43;16.70;99.90
30648;DHT22;17683;53.360;9.736;2022-09-30T12:32:06;16.60;99.90
30648;DHT22;17683;53.360;9.736;2022-09-30T12:35:05;16.50;99.90
30648;DHT22;17683;53.360;9.736;2022-09-30T12:42:56;16.30;99.90
30648;DHT22;17683;53.360;9.736;2022-09-30T12:48:18;16.20;99.90
30648;DHT22;17683;53.360;9.736;2022-09-30T12:50:50;16.20;99.90
30648;DHT22;17683;53.360;9.736;2022-09-30T12:53:25;16.20;99.90
30648;DHT22;17683;53.360;9.736;2022-09-30T12:55:51;16.20;99.90
30648;DHT22;17683;53.360;9.736;2022-09-30T12:58:24;16.10;99.90
30648;DHT22;17683;53.360;9.736;2022-09-30T13:01:03;16.10;99.90
30648;DHT22;17683;53.360;9.736;2022-09-30T13:06:26;16.00;99.90
30648;DHT22;17683;53.360;9.736;2022-09-30T13:11:38;16.00;99.90
30648;DHT22;17683;53.360;9.736;2022-09-30T13:14:18;16.10;99.90
30648;DHT22;17683;53.360;9.736;2022-09-30T13:19:46;16.20;99.90
30648;DHT22;17683;53.360;9.736;2022-09-30T13:35:35;16.30;99.90
30648;DHT22;17683;53.360;9.736;2022-09-30T13:40:56;16.20;99.90
30648;DHT22;17683;53.360;9.736;2022-09-30T13:45:57;16.10;99.90
30648;DHT22;17683;53.360;9.736;2022-09-30T13:48:30;16.00;99.90
30648;DHT22;17683;53.360;9.736;2022-09-30T13:50:58;16.00;99.90
30648;DHT22;17683;53.360;9.736;2022-09-30T13:53:31;16.00;99.90
30648;DHT22;17683;53.360;9.736;2022-09-30T13:56:05;16.10;99.90
30648;DHT22;17683;53.360;9.736;2022-09-30T14:09:45;16.10;99.90
30648;DHT22;17683;53.360;9.736;2022-09-30T14:18:06;16.10;99.90
30648;DHT22;17683;53.360;9.736;2022-09-30T14:23:15;16.20;99.90
30648;DHT22;17683;53.360;9.736;2022-09-30T14:29:14;16.10;99.90
30648;DHT22;17683;53.360;9.736;2022-09-30T14:31:43;16.00;99.90
30648;DHT22;17683;53.360;9.736;2022-09-30T14:34:11;16.00;99.90
30648;DHT22;17683;53.360;9.736;2022-09-30T14:36:38;16.00;99.90
30648;DHT22;17683;53.360;9.736;2022-09-30T14:39:05;16.00;99.90
30648;DHT22;17683;53.360;9.736;2022-09-30T14:41:35;16.00;99.90
30648;DHT22;17683;53.360;9.736;2022-09-30T14:44:05;16.00;99.90
30648;DHT22;17683;53.360;9.736;2022-09-30T14:49:01;16.00;99.90
30648;DHT22;17683;53.360;9.736;2022-09-30T14:51:38;16.00;99.90
30648;DHT22;17683;53.360;9.736;2022-09-30T14:54:25;15.90;99.90
30648;DHT22;17683;53.360;9.736;2022-09-30T14:56:53;15.90;99.90
30648;DHT22;17683;53.360;9.736;2022-09-30T15:01:50;15.80;99.90
30648;DHT22;17683;53.360;9.736;2022-09-30T15:04:24;15.70;99.90
30648;DHT22;17683;53.360;9.736;2022-09-30T15:06:51;15.70;99.90
30648;DHT22;17683;53.360;9.736;2022-09-30T15:09:34;15.60;99.90
30648;DHT22;17683;53.360;9.736;2022-09-30T15:12:08;15.60;99.90
30648;DHT22;17683;53.360;9.736;2022-09-30T15:14:54;15.60;99.90
30648;DHT22;17683;53.360;9.736;2022-09-30T15:17:26;15.60;99.90
30648;DHT22;17683;53.360;9.736;2022-09-30T15:19:53;15.50;99.90
30648;DHT22;17683;53.360;9.736;2022-09-30T15:22:22;15.50;99.90
30648;DHT22;17683;53.360;9.736;2022-09-30T15:24:48;15.40;99.90
30648;DHT22;17683;53.360;9.736;2022-09-30T15:27:21;15.40;99.90
30648;DHT22;17683;53.360;9.736;2022-09-30T15:32:22;15.30;99.90
30648;DHT22;17683;53.360;9.736;2022-09-30T15:34:49;15.20;99.90
30648;DHT22;17683;53.360;9.736;2022-09-30T15:37:25;15.20;99.90
30648;DHT22;17683;53.360;9.736;2022-09-30T15:39:58;15.10;99.90
30648;DHT22;17683;53.360;9.736;2022-09-30T15:48:30;15.00;99.90
30648;DHT22;17683;53.360;9.736;2022-09-30T15:50:58;14.90;99.90
30648;DHT22;17683;53.360;9.736;2022-09-30T15:53:45;14.90;99.90
30648;DHT22;17683;53.360;9.736;2022-09-30T15:58:54;14.70;99.90
30648;DHT22;17683;53.360;9.736;2022-09-30T16:01:25;14.70;99.90
30648;DHT22;17683;53.360;9.736;2022-09-30T16:07:07;14.60;99.90
30648;DHT22;17683;53.360;9.736;2022-09-30T16:09:38;14.60;99.90
30648;DHT22;17683;53.360;9.736;2022-09-30T16:14:48;14.50;99.90
30648;DHT22;17683;53.360;9.736;2022-09-30T16:17:25;14.40;99.90
30648;DHT22;17683;53.360;9.736;2022-09-30T16:25:15;14.30;99.90
30648;DHT22;17683;53.360;9.736;2022-09-30T16:27:41;14.20;99.90
30648;DHT22;17683;53.360;9.736;2022-09-30T16:30:16;14.20;99.90
30648;DHT22;17683;53.360;9.736;2022-09-30T16:32:45;14.10;99.90
30648;DHT22;17683;53.360;9.736;2022-09-30T16:35:22;14.00;99.90
30648;DHT22;17683;53.360;9.736;2022-09-30T16:37:50;13.90;99.90
30648;DHT22;17683;53.360;9.736;2022-09-30T16:40:23;13.80;99.90
30648;DHT22;17683;53.360;9.736;2022-09-30T16:42:50;13.80;99.90
30648;DHT22;17683;53.360;9.736;2022-09-30T16:45:16;13.80;99.90
30648;DHT22;17683;53.360;9.736;2022-09-30T16:47:43;13.70;99.90
30648;DHT22;17683;53.360;9.736;2022-09-30T16:52:46;13.50;99.90
30648;DHT22;17683;53.360;9.736;2022-09-30T16:55:12;13.40;99.90
30648;DHT22;17683;53.360;9.736;2022-09-30T16:57:37;13.30;99.90
30648;DHT22;17683;53.360;9.736;2022-09-30T17:00:05;13.20;99.90
30648;DHT22;17683;53.360;9.736;2022-09-30T17:02:31;13.10;99.90
30648;DHT22;17683;53.360;9.736;2022-09-30T17:04:57;13.10;99.90
30648;DHT22;17683;53.360;9.736;2022-09-30T17:07:22;13.00;99.90
30648;DHT22;17683;53.360;9.736;2022-09-30T17:09:48;12.90;99.90
30648;DHT22;17683;53.360;9.736;2022-09-30T17:12:14;12.70;99.90
30648;DHT22;17683;53.360;9.736;2022-09-30T17:14:40;12.60;99.90
30648;DHT22;17683;53.360;9.736;2022-09-30T17:17:08;12.50;99.90
30648;DHT22;17683;53.360;9.736;2022-09-30T17:19:34;12.40;99.90
30648;DHT22;17683;53.360;9.736;2022-09-30T17:22:03;12.30;99.90
30648;DHT22;17683;53.360;9.736;2022-09-30T17:24:30;12.20;99.90
30648;DHT22;17683;53.360;9.736;2022-09-30T17:26:56;12.10;99.90
30648;DHT22;17683;53.360;9.736;2022-09-30T17:29:22;12.10;99.90
30648;DHT22;17683;53.360;9.736;2022-09-30T17:31:48;12.00;99.90
30648;DHT22;17683;53.360;9.736;2022-09-30T17:34:14;11.90;99.90
30648;DHT22;17683;53.360;9.736;2022-09-30T17:36:39;11.90;99.90
30648;DHT22;17683;53.360;9.736;2022-09-30T17:39:06;11.80;99.90
30648;DHT22;17683;53.360;9.736;2022-09-30T17:41:32;11.70;99.90
30648;DHT22;17683;53.360;9.736;2022-09-30T17:44:17;11.70;99.90
30648;DHT22;17683;53.360;9.736;2022-09-30T17:46:44;11.60;99.90
30648;DHT22;17683;53.360;9.736;2022-09-30T17:49:13;11.50;99.90
30648;DHT22;17683;53.360;9.736;2022-09-30T17:51:42;11.40;99.90
30648;DHT22;17683;53.360;9.736;2022-09-30T17:54:07;11.40;99.90
30648;DHT22;17683;53.360;9.736;2022-09-30T17:56:33;11.40;99.90
30648;DHT22;17683;53.360;9.736;2022-09-30T17:59:00;11.30;99.90
30648;DHT22;17683;53.360;9.736;2022-09-30T18:01:27;11.20;99.90
30648;DHT22;17683;53.360;9.736;2022-09-30T18:04:00;11.20;99.90
30648;DHT22;17683;53.360;9.736;2022-09-30T18:06:26;11.10;99.90
30648;DHT22;17683;53.360;9.736;2022-09-30T18:08:53;11.10;99.90
30648;DHT22;17683;53.360;9.736;2022-09-30T18:11:23;11.10;99.90
30648;DHT22;17683;53.360;9.736;2022-09-30T18:13:57;11.00;99.90
30648;DHT22;17683;53.360;9.736;2022-09-30T18:16:29;10.90;99.90
30648;DHT22;17683;53.360;9.736;2022-09-30T18:18:57;10.90;99.90
30648;DHT22;17683;53.360;9.736;2022-09-30T18:21:23;10.80;99.90
30648;DHT22;17683;53.360;9.736;2022-09-30T18:23:53;10.80;99.90
30648;DHT22;17683;53.360;9.736;2022-09-30T18:26:22;10.80;99.90
30648;DHT22;17683;53.360;9.736;2022-09-30T18:28:49;10.70;99.90
30648;DHT22;17683;53.360;9.736;2022-09-30T18:31:19;10.70;99.90
30648;DHT22;17683;53.360;9.736;2022-09-30T18:33:59;10.70;99.90
30648;DHT22;17683;53.360;9.736;2022-09-30T18:36:26;10.70;99.90
30648;DHT22;17683;53.360;9.736;2022-09-30T18:38:54;10.70;99.90
30648;DHT22;17683;53.360;9.736;2022-09-30T18:41:24;10.60;99.90
30648;DHT22;17683;53.360;9.736;2022-09-30T18:43:50;10.60;99.90
30648;DHT22;17683;53.360;9.736;2022-09-30T18:46:21;10.50;99.90
30648;DHT22;17683;53.360;9.736;2022-09-30T18:48:48;10.50;99.90
30648;DHT22;17683;53.360;9.736;2022-09-30T18:51:14;10.40;99.90
30648;DHT22;17683;53.360;9.736;2022-09-30T18:53:42;10.40;99.90
30648;DHT22;17683;53.360;9.736;2022-09-30T18:56:09;10.40;99.90
30648;DHT22;17683;53.360;9.736;2022-09-30T18:58:35;10.30;99.90
30648;DHT22;17683;53.360;9.736;2022-09-30T19:01:02;10.30;99.90
30648;DHT22;17683;53.360;9.736;2022-09-30T19:03:29;10.30;99.90
30648;DHT22;17683;53.360;9.736;2022-09-30T19:05:55;10.30;99.90
30648;DHT22;17683;53.360;9.736;2022-09-30T19:08:25;10.30;99.90
30648;DHT22;17683;53.360;9.736;2022-09-30T19:10:51;10.20;99.90
30648;DHT22;17683;53.360;9.736;2022-09-30T19:13:19;10.20;99.90
30648;DHT22;17683;53.360;9.736;2022-09-30T19:15:45;10.20;99.90
30648;DHT22;17683;53.360;9.736;2022-09-30T19:18:11;10.10;99.90
30648;DHT22;17683;53.360;9.736;2022-09-30T19:20:37;10.10;99.90
30648;DHT22;17683;53.360;9.736;2022-09-30T19:23:04;10.10;99.90
30648;DHT22;17683;53.360;9.736;2022-09-30T19:25:33;10.00;99.90
30648;DHT22;17683;53.360;9.736;2022-09-30T19:27:59;10.00;99.90
30648;DHT22;17683;53.360;9.736;2022-09-30T19:30:25;9.90;99.90
30648;DHT22;17683;53.360;9.736;2022-09-30T19:32:57;10.00;99.90